Terminal Aerodrome Forecast
Issued by NWS

Current Version | Previous Version | Text Only | Print | Product List | Glossary On
Versions: 1 2 3 4 5 6 7 8 9 10 11
489
FTUS43 KOAX 250538
TAFBFF
TAF
KBFF 250538Z 2506/2606 11009KT 4SM -RA OVC040
     FM251100 29009KT P6SM BKN070
     FM251800 35016G24KT P6SM OVC020=

USA.gov is the U.S. government's official web portal to all federal, state and local government web resources and services.